Time;durP1;ratioP1;P1;durP2;ratioP2;P2;SDS_P1;SDS_P2;PMS_P1;PMS_P2;Temp;Humidity;BMP_temperature;BMP_pressure;BME280_temperature;BME280_humidity;BME280_pressure;Samples;Min_cycle;Max_cycle;Signal;HPM_P1;HPM_P2
2022/07/28 00:02:14;;;;;;;;;;;;;;;21.97;67.30;100453.27;1744444;81;21125;-68
2022/07/28 00:04:41;;;;;;;;;;;;;;;22.00;67.17;100459.96;1745214;81;20152;-68
2022/07/28 00:07:07;;;;;;;;;;;;;;;21.91;67.47;100460.61;1742997;81;20184;-68
2022/07/28 00:09:33;;;;;;;;;;;;;;;21.89;67.67;100460.17;1738939;81;20238;-68
2022/07/28 00:12:00;;;;;;;;;;;;;;;21.87;67.79;100465.92;1740979;81;20219;-68
2022/07/28 00:14:26;;;;;;;;;;;;;;;21.86;67.73;100466.28;1739189;81;21134;-67
2022/07/28 00:16:52;;;;;;;;;;;;;;;21.82;67.71;100466.16;1740777;81;20400;-67
2022/07/28 00:19:19;;;;;;;;;;;;;;;21.80;67.64;100469.76;1739509;81;20187;-66
2022/07/28 00:21:47;;;;;;;;;;;;;;;21.78;67.58;100472.00;1740565;81;20128;-67
2022/07/28 00:24:15;;;;;;;;;;;;;;;21.77;67.53;100465.78;1739303;81;20145;-67
2022/07/28 00:26:41;;;;;;;;;;;;;;;21.83;67.15;100466.38;1740083;81;21125;-67
2022/07/28 00:29:08;;;;;;;;;;;;;;;21.79;67.04;100464.10;1740899;82;20234;-67
2022/07/28 00:31:35;;;;;;;;;;;;;;;21.72;67.12;100457.84;1742030;81;20205;-67
2022/07/28 00:34:01;;;;;;;;;;;;;;;21.68;67.20;100458.27;1742943;81;20230;-67
2022/07/28 00:36:28;;;;;;;;;;;;;;;21.65;67.32;100460.31;1739413;81;20439;-67
2022/07/28 00:38:54;;;;;;;;;;;;;;;21.64;67.40;100467.43;1740887;81;21132;-67
2022/07/28 00:41:21;;;;;;;;;;;;;;;21.64;67.43;100464.71;1738349;80;20206;-67
2022/07/28 00:43:50;;;;;;;;;;;;;;;21.63;67.50;100465.28;1739053;81;20258;-67
2022/07/28 00:46:18;;;;;;;;;;;;;;;21.71;67.30;100472.55;1740805;81;20214;-67
2022/07/28 00:48:46;;;;;;;;;;;;;;;21.74;67.07;100473.24;1740897;81;20139;-68
2022/07/28 00:51:12;;;;;;;;;;;;;;;21.69;67.12;100472.67;1740667;81;21106;-66
2022/07/28 00:53:39;;;;;;;;;;;;;;;21.70;67.00;100470.18;1738187;81;20518;-67
2022/07/28 00:56:06;;;;;;;;;;;;;;;21.69;66.93;100477.55;1736442;81;20183;-66
2022/07/28 00:58:33;;;;;;;;;;;;;;;21.70;66.74;100475.05;1739974;81;20144;-68
2022/07/28 01:00:59;;;;;;;;;;;;;;;21.70;66.66;100469.61;1738169;81;20446;-67
2022/07/28 01:03:26;;;;;;;;;;;;;;;21.75;66.43;100472.13;1739793;81;21263;-68
2022/07/28 01:05:58;;;;;;;;;;;;;;;21.73;66.30;100470.30;1739411;81;20439;-68
2022/07/28 01:08:46;;;;;;;;;;;;;;;21.68;66.21;100469.13;1735038;81;20163;-68
2022/07/28 01:11:32;;;;;;;;;;;;;;;21.68;66.18;100469.70;1742848;81;20381;-67
2022/07/28 01:14:07;;;;;;;;;;;;;;;21.66;66.19;100467.34;1740242;81;20195;-68
2022/07/28 01:16:39;;;;;;;;;;;;;;;21.66;66.13;100470.05;1739365;81;21280;-67
2022/07/28 01:19:20;;;;;;;;;;;;;;;21.67;66.07;100471.63;1741731;81;20148;-67
2022/07/28 01:21:47;;;;;;;;;;;;;;;21.68;65.99;100469.70;1742622;82;20132;-66
2022/07/28 01:24:28;;;;;;;;;;;;;;;21.68;65.98;100463.70;1740679;81;20222;-67
2022/07/28 01:27:01;;;;;;;;;;;;;;;21.69;65.97;100461.80;1734486;81;20129;-68
2022/07/28 01:29:34;;;;;;;;;;;;;;;21.72;65.88;100455.70;1726504;81;21183;-67
2022/07/28 01:32:11;;;;;;;;;;;;;;;21.70;65.67;100458.73;1740684;81;20509;-65
2022/07/28 01:34:46;;;;;;;;;;;;;;;21.72;65.51;100463.28;1738859;80;20183;-67
2022/07/28 01:37:16;;;;;;;;;;;;;;;21.70;65.56;100476.41;1737982;81;20620;-67
2022/07/28 01:39:42;;;;;;;;;;;;;;;21.60;65.61;100482.82;1739928;81;20203;-67
2022/07/28 01:42:09;;;;;;;;;;;;;;;21.53;65.73;100484.72;1739288;81;21205;-67
2022/07/28 01:44:39;;;;;;;;;;;;;;;21.51;65.71;100482.88;1735225;81;20207;-67
2022/07/28 01:47:06;;;;;;;;;;;;;;;21.50;65.77;100473.94;1733168;81;20138;-67
2022/07/28 01:49:34;;;;;;;;;;;;;;;21.50;65.75;100480.73;1730587;81;20215;-67
2022/07/28 01:52:02;;;;;;;;;;;;;;;21.50;65.70;100482.66;1734581;81;20253;-67
2022/07/28 01:54:28;;;;;;;;;;;;;;;21.48;65.70;100481.62;1721198;82;21165;-68
2022/07/28 01:56:55;;;;;;;;;;;;;;;21.47;65.70;100473.81;1739819;81;20211;-67
2022/07/28 01:59:22;;;;;;;;;;;;;;;21.43;65.77;100481.05;1736779;81;20152;-68
2022/07/28 02:01:49;;;;;;;;;;;;;;;21.44;65.85;100485.34;1740176;80;20140;-67
2022/07/28 02:04:18;;;;;;;;;;;;;;;21.51;65.69;100488.31;1740384;81;20199;-67
2022/07/28 02:06:44;;;;;;;;;;;;;;;21.49;65.66;100492.73;1738939;81;21133;-68
2022/07/28 02:09:12;;;;;;;;;;;;;;;21.43;65.75;100484.55;1739043;81;20087;-66
2022/07/28 02:11:39;;;;;;;;;;;;;;;21.31;66.11;100489.31;1737730;81;20479;-66
2022/07/28 02:14:08;;;;;;;;;;;;;;;21.26;66.30;100496.88;1739115;81;20187;-67
2022/07/28 02:16:36;;;;;;;;;;;;;;;21.23;66.49;100486.67;1739334;81;20600;-66
2022/07/28 02:19:02;;;;;;;;;;;;;;;21.19;66.61;100502.84;1741487;80;21119;-67
2022/07/28 02:21:29;;;;;;;;;;;;;;;21.16;66.69;100501.31;1738600;81;20482;-68
2022/07/28 02:23:56;;;;;;;;;;;;;;;21.13;66.87;100513.66;1740451;81;20195;-67
2022/07/28 02:26:27;;;;;;;;;;;;;;;21.11;67.05;100516.46;1742573;81;20444;-66
2022/07/28 02:28:55;;;;;;;;;;;;;;;21.07;67.17;100513.05;1740486;81;20223;-67
2022/07/28 02:31:32;;;;;;;;;;;;;;;21.05;67.19;100504.42;1737477;81;21170;-66
2022/07/28 02:33:59;;;;;;;;;;;;;;;21.05;67.24;100513.12;1738562;81;20169;-66
2022/07/28 02:36:29;;;;;;;;;;;;;;;21.04;67.37;100517.77;1741100;81;20187;-67
2022/07/28 02:38:58;;;;;;;;;;;;;;;21.07;67.48;100517.69;1739207;81;20187;-67
2022/07/28 02:41:27;;;;;;;;;;;;;;;21.07;67.46;100506.82;1738530;81;20184;-67
2022/07/28 02:43:59;;;;;;;;;;;;;;;21.07;67.34;100498.67;1735591;81;21161;-67
2022/07/28 02:46:28;;;;;;;;;;;;;;;21.08;67.29;100504.33;1739506;81;20290;-67
2022/07/28 02:48:57;;;;;;;;;;;;;;;21.04;67.40;100523.20;1740351;81;20203;-66
2022/07/28 02:51:24;;;;;;;;;;;;;;;21.02;67.44;100520.58;1742488;81;20206;-66
2022/07/28 02:53:51;;;;;;;;;;;;;;;20.99;67.41;100528.02;1737133;81;20169;-68
2022/07/28 02:56:17;;;;;;;;;;;;;;;20.97;67.47;100524.85;1746540;81;21157;-66
2022/07/28 02:58:44;;;;;;;;;;;;;;;21.04;67.35;100523.77;1741963;81;20175;-68
2022/07/28 03:01:10;;;;;;;;;;;;;;;21.04;67.33;100520.48;1742669;81;20153;-67
2022/07/28 03:03:37;;;;;;;;;;;;;;;21.07;67.31;100532.62;1729460;81;20155;-68
2022/07/28 03:06:04;;;;;;;;;;;;;;;21.07;67.33;100521.19;1740139;81;20429;-68
2022/07/28 03:08:31;;;;;;;;;;;;;;;21.11;67.32;100525.41;1741798;81;21145;-68
2022/07/28 03:11:11;;;;;;;;;;;;;;;21.10;67.35;100515.67;1743674;81;20141;-66
2022/07/28 03:13:37;;;;;;;;;;;;;;;21.12;67.27;100516.69;1726172;81;20481;-67
2022/07/28 03:16:05;;;;;;;;;;;;;;;21.16;67.15;100520.33;1737409;81;20203;-67
2022/07/28 03:18:32;;;;;;;;;;;;;;;21.17;67.06;100525.45;1743705;81;20223;-66
2022/07/28 03:20:59;;;;;;;;;;;;;;;21.17;67.00;100524.09;1747691;80;21115;-66
2022/07/28 03:23:30;;;;;;;;;;;;;;;21.18;66.98;100518.88;1747911;80;20143;-67
2022/07/28 03:25:58;;;;;;;;;;;;;;;21.16;66.90;100529.30;1758963;80;20149;-67
2022/07/28 03:28:25;;;;;;;;;;;;;;;21.15;66.94;100533.12;1745544;81;20175;-67
2022/07/28 03:30:57;;;;;;;;;;;;;;;21.15;67.04;100526.89;1740280;81;20176;-67
2022/07/28 03:33:24;;;;;;;;;;;;;;;21.15;67.00;100521.47;1740262;81;21130;-66
2022/07/28 03:35:51;;;;;;;;;;;;;;;21.11;67.00;100521.33;1738422;81;20195;-67
2022/07/28 03:38:21;;;;;;;;;;;;;;;21.11;66.98;100525.97;1739737;81;20581;-66
2022/07/28 03:40:47;;;;;;;;;;;;;;;21.12;67.00;100532.98;1740065;81;20650;-67
2022/07/28 03:43:16;;;;;;;;;;;;;;;21.21;66.83;100531.81;1739985;81;20176;-67
2022/07/28 03:45:43;;;;;;;;;;;;;;;21.25;66.65;100536.02;1736025;81;21237;-67
2022/07/28 03:48:10;;;;;;;;;;;;;;;21.28;66.43;100532.08;1739732;81;20415;-67
2022/07/28 03:50:36;;;;;;;;;;;;;;;21.34;66.23;100544.12;1739898;81;20183;-67
2022/07/28 03:53:02;;;;;;;;;;;;;;;21.41;66.15;100555.29;1742081;81;21033;-67
2022/07/28 03:55:29;;;;;;;;;;;;;;;21.47;65.71;100552.05;1738964;81;20152;-69
2022/07/28 03:57:56;;;;;;;;;;;;;;;21.54;65.25;100548.80;1739620;81;21149;-68
2022/07/28 04:00:24;;;;;;;;;;;;;;;21.56;65.08;100541.70;1737445;81;20172;-67
2022/07/28 04:02:52;;;;;;;;;;;;;;;21.61;64.77;100536.84;1735680;81;20160;-67
2022/07/28 04:05:19;;;;;;;;;;;;;;;21.65;64.38;100541.86;1739360;81;20148;-67
2022/07/28 04:07:47;;;;;;;;;;;;;;;21.69;63.74;100548.22;1740645;80;20143;-68
2022/07/28 04:10:14;;;;;;;;;;;;;;;21.73;63.39;100553.78;1742198;81;21157;-68
2022/07/28 04:12:53;;;;;;;;;;;;;;;21.77;63.24;100548.70;1735911;81;20206;-66
2022/07/28 04:15:20;;;;;;;;;;;;;;;21.83;62.77;100554.73;1749536;79;20201;-68
2022/07/28 04:17:48;;;;;;;;;;;;;;;21.86;62.18;100552.72;1749122;79;20177;-67
2022/07/28 04:20:16;;;;;;;;;;;;;;;21.89;62.07;100564.86;1764773;80;20169;-68
2022/07/28 04:22:43;;;;;;;;;;;;;;;21.93;61.34;100565.77;1743083;80;21838;-67
2022/07/28 04:25:11;;;;;;;;;;;;;;;22.04;60.99;100562.86;1723320;81;20219;-67
2022/07/28 04:27:38;;;;;;;;;;;;;;;22.09;60.17;100550.43;1739210;81;20443;-67
2022/07/28 04:30:08;;;;;;;;;;;;;;;22.14;60.15;100550.20;1737660;81;20187;-66
2022/07/28 04:32:34;;;;;;;;;;;;;;;22.18;59.46;100547.67;1739313;81;20231;-67
2022/07/28 04:35:00;;;;;;;;;;;;;;;22.20;59.32;100552.98;1740077;81;21753;-66
2022/07/28 04:37:27;;;;;;;;;;;;;;;22.21;58.71;100555.95;1736726;81;20194;-67
2022/07/28 04:39:53;;;;;;;;;;;;;;;22.16;58.18;100559.44;1741831;81;20161;-66
2022/07/28 04:42:20;;;;;;;;;;;;;;;22.07;58.17;100569.56;1738601;81;20195;-67
2022/07/28 04:44:47;;;;;;;;;;;;;;;21.96;58.41;100571.34;1738573;81;20203;-68
2022/07/28 04:47:13;;;;;;;;;;;;;;;21.92;58.49;100569.63;1739386;81;21874;-68
2022/07/28 04:49:40;;;;;;;;;;;;;;;21.94;58.88;100572.80;1738055;81;20183;-67
2022/07/28 04:52:09;;;;;;;;;;;;;;;22.02;59.03;100582.82;1736293;81;20139;-68
2022/07/28 04:54:38;;;;;;;;;;;;;;;22.09;59.07;100585.79;1739565;81;20152;-68
2022/07/28 04:57:04;;;;;;;;;;;;;;;22.15;58.80;100584.49;1739650;81;20196;-67
2022/07/28 04:59:30;;;;;;;;;;;;;;;22.18;58.91;100582.47;1739723;81;21155;-68
2022/07/28 05:01:57;;;;;;;;;;;;;;;22.24;59.01;100592.55;1737531;80;20165;-67
2022/07/28 05:04:25;;;;;;;;;;;;;;;22.29;58.33;100590.20;1738791;81;20175;-67
2022/07/28 05:06:51;;;;;;;;;;;;;;;22.33;58.24;100593.84;1736588;80;20116;-67
2022/07/28 05:09:18;;;;;;;;;;;;;;;22.44;57.24;100596.36;1738083;81;20172;-67
2022/07/28 05:11:44;;;;;;;;;;;;;;;22.53;56.54;100601.16;1739567;81;20649;-67
2022/07/28 05:14:10;;;;;;;;;;;;;;;22.59;56.10;100603.89;1738685;81;20169;-67
2022/07/28 05:16:36;;;;;;;;;;;;;;;22.65;55.79;100597.11;1739117;81;20179;-67
2022/07/28 05:19:04;;;;;;;;;;;;;;;22.29;56.40;100600.52;1740756;80;20242;-68
2022/07/28 05:21:31;;;;;;;;;;;;;;;22.73;54.75;100602.79;1738876;81;20199;-67
2022/07/28 05:23:58;;;;;;;;;;;;;;;22.79;53.83;100600.08;1739531;81;21162;-67
2022/07/28 05:26:26;;;;;;;;;;;;;;;22.52;54.30;100600.94;1739005;81;20226;-66
2022/07/28 05:28:54;;;;;;;;;;;;;;;22.23;55.37;100591.77;1737522;81;20136;-67
2022/07/28 05:31:20;;;;;;;;;;;;;;;22.22;55.43;100589.39;1740472;81;20163;-67
2022/07/28 05:33:47;;;;;;;;;;;;;;;22.23;55.23;100602.64;1738492;81;20204;-68
2022/07/28 05:36:15;;;;;;;;;;;;;;;22.24;54.79;100608.88;1739175;81;20156;-67
2022/07/28 05:38:41;;;;;;;;;;;;;;;22.28;55.24;100612.55;1738803;81;20410;-68
2022/07/28 05:41:08;;;;;;;;;;;;;;;22.37;55.13;100615.16;1738945;81;20148;-68
2022/07/28 05:43:36;;;;;;;;;;;;;;;22.46;55.14;100628.13;1740982;81;20320;-67
2022/07/28 05:46:03;;;;;;;;;;;;;;;22.54;55.22;100615.55;1738890;81;20148;-68
2022/07/28 05:48:30;;;;;;;;;;;;;;;22.61;55.27;100628.08;1741493;81;21292;-68
2022/07/28 05:50:57;;;;;;;;;;;;;;;22.67;54.56;100624.80;1738247;81;20172;-67
2022/07/28 05:53:24;;;;;;;;;;;;;;;22.74;54.74;100622.06;1738908;81;20815;-68
2022/07/28 05:55:50;;;;;;;;;;;;;;;23.00;54.33;100628.06;1739330;81;20204;-68
2022/07/28 05:58:21;;;;;;;;;;;;;;;22.98;53.38;100636.34;1740444;81;20250;-68
2022/07/28 06:00:48;;;;;;;;;;;;;;;22.97;52.71;100626.56;1739873;81;21107;-66
2022/07/28 06:03:14;;;;;;;;;;;;;;;23.41;50.08;100628.97;1741035;81;20485;-68
2022/07/28 06:05:41;;;;;;;;;;;;;;;23.58;48.79;100630.66;1739594;81;20161;-68
2022/07/28 06:08:07;;;;;;;;;;;;;;;23.58;48.28;100635.53;1739776;81;20717;-68
2022/07/28 06:13:19;;;;;;;;;;;;;;;23.59;49.27;100637.14;1739058;81;20817;-66
2022/07/28 06:15:50;;;;;;;;;;;;;;;23.63;49.52;100644.86;1740670;81;20227;-66
2022/07/28 06:18:16;;;;;;;;;;;;;;;23.67;49.15;100642.23;1739820;81;20246;-68
2022/07/28 06:20:45;;;;;;;;;;;;;;;23.75;48.98;100640.54;1740882;81;21495;-67
2022/07/28 06:23:19;;;;;;;;;;;;;;;23.53;49.46;100643.96;1739948;81;20215;-67
2022/07/28 06:25:45;;;;;;;;;;;;;;;23.86;49.09;100650.64;1738025;81;21134;-66
2022/07/28 06:28:12;;;;;;;;;;;;;;;24.06;48.21;100659.80;1739415;81;20176;-67
2022/07/28 06:30:38;;;;;;;;;;;;;;;24.11;47.72;100659.54;1739622;81;20596;-66
2022/07/28 06:33:06;;;;;;;;;;;;;;;24.15;47.43;100657.48;1741592;81;20227;-67
2022/07/28 06:35:33;;;;;;;;;;;;;;;24.18;46.61;100664.41;1741770;81;20168;-68
2022/07/28 06:37:59;;;;;;;;;;;;;;;24.22;46.69;100663.14;1742094;81;21157;-68
2022/07/28 06:40:27;;;;;;;;;;;;;;;24.26;46.64;100658.03;1697451;83;20170;-68
2022/07/28 06:42:54;;;;;;;;;;;;;;;24.34;46.04;100655.70;1706332;82;20154;-68
2022/07/28 06:45:20;;;;;;;;;;;;;;;24.38;45.88;100661.27;1715164;81;20523;-67
2022/07/28 06:47:46;;;;;;;;;;;;;;;24.43;45.92;100660.27;1673123;84;20219;-67
2022/07/28 06:50:12;;;;;;;;;;;;;;;24.44;45.77;100657.17;1689471;83;21834;-67
2022/07/28 06:52:39;;;;;;;;;;;;;;;24.38;45.27;100661.27;1703606;82;20174;-68
2022/07/28 06:55:06;;;;;;;;;;;;;;;24.38;45.33;100663.98;1702399;83;20260;-67
2022/07/28 06:57:33;;;;;;;;;;;;;;;24.38;45.67;100665.36;1708156;82;21110;-67
2022/07/28 07:00:05;;;;;;;;;;;;;;;24.44;45.46;100658.54;1706985;82;20177;-67
2022/07/28 07:02:32;;;;;;;;;;;;;;;24.56;45.55;100657.70;1708166;82;21274;-68
2022/07/28 07:04:59;;;;;;;;;;;;;;;24.57;45.19;100661.44;1708248;82;20190;-68
2022/07/28 07:07:25;;;;;;;;;;;;;;;24.63;45.22;100656.52;1708213;82;20085;-67
2022/07/28 07:09:52;;;;;;;;;;;;;;;24.72;44.88;100654.42;1708643;82;20146;-69
2022/07/28 07:12:18;;;;;;;;;;;;;;;24.84;44.36;100655.48;1709023;82;20266;-68
2022/07/28 07:14:44;;;;;;;;;;;;;;;24.84;44.49;100654.91;1711553;82;21141;-67
2022/07/28 07:17:11;;;;;;;;;;;;;;;24.87;44.13;100654.78;1710506;82;20238;-67
2022/07/28 07:19:39;;;;;;;;;;;;;;;24.95;44.57;100659.30;1710719;82;20452;-67
2022/07/28 07:22:05;;;;;;;;;;;;;;;25.05;44.30;100656.05;1710149;82;20222;-67
2022/07/28 07:24:34;;;;;;;;;;;;;;;25.02;44.54;100656.17;1699784;82;20480;-67
2022/07/28 07:27:00;;;;;;;;;;;;;;;25.08;44.07;100662.17;1694554;82;21245;-67
2022/07/28 07:29:27;;;;;;;;;;;;;;;25.17;44.31;100658.73;1696368;82;20151;-66
2022/07/28 07:31:54;;;;;;;;;;;;;;;25.24;44.11;100661.63;1713161;82;20139;-67
2022/07/28 07:34:22;;;;;;;;;;;;;;;25.26;43.62;100654.42;1712767;82;20129;-67
2022/07/28 07:36:49;;;;;;;;;;;;;;;25.32;44.05;100663.16;1712015;82;20138;-68
2022/07/28 07:39:15;;;;;;;;;;;;;;;25.34;43.82;100665.77;1742827;81;21247;-67
2022/07/28 07:41:41;;;;;;;;;;;;;;;25.33;43.27;100664.16;1743174;81;20171;-68
2022/07/28 07:44:11;;;;;;;;;;;;;;;25.38;44.09;100668.00;1745711;81;20147;-66
2022/07/28 07:46:38;;;;;;;;;;;;;;;25.46;43.65;100664.85;1741932;81;20172;-69
2022/07/28 07:49:05;;;;;;;;;;;;;;;25.53;41.88;100680.63;1744168;81;20179;-67
2022/07/28 07:51:31;;;;;;;;;;;;;;;25.57;40.92;100679.59;1742992;82;21153;-68
2022/07/28 07:53:58;;;;;;;;;;;;;;;25.65;40.77;100674.48;1742939;81;20148;-67
2022/07/28 07:56:24;;;;;;;;;;;;;;;25.72;41.07;100694.37;1745366;81;20486;-68
2022/07/28 07:58:52;;;;;;;;;;;;;;;25.68;40.83;100674.35;1748168;81;20238;-67
2022/07/28 08:01:19;;;;;;;;;;;;;;;25.68;40.81;100681.19;1744127;81;20142;-67
2022/07/28 08:03:47;;;;;;;;;;;;;;;25.69;40.80;100679.45;1743289;80;21156;-67
2022/07/28 08:06:13;;;;;;;;;;;;;;;25.79;39.81;100684.95;1741419;82;20235;-67
2022/07/28 08:08:41;;;;;;;;;;;;;;;25.74;39.46;100678.41;1753895;80;20139;-67
2022/07/28 08:11:09;;;;;;;;;;;;;;;25.75;39.12;100682.71;1744563;81;20168;-67
2022/07/28 08:13:37;;;;;;;;;;;;;;;25.76;39.19;100688.39;1742665;81;20153;-68
2022/07/28 08:16:04;;;;;;;;;;;;;;;25.82;39.05;100686.21;1742614;80;21024;-67
2022/07/28 08:18:31;;;;;;;;;;;;;;;25.81;39.05;100679.95;1752608;80;20221;-67
2022/07/28 08:20:59;;;;;;;;;;;;;;;25.84;39.12;100689.40;1752343;81;20200;-66
2022/07/28 08:23:26;;;;;;;;;;;;;;;25.90;38.34;100687.39;1741322;81;20255;-67
2022/07/28 08:25:53;;;;;;;;;;;;;;;25.99;38.17;100693.22;1743687;81;20452;-67
2022/07/28 08:28:19;;;;;;;;;;;;;;;25.95;38.33;100689.83;1744808;81;21158;-67
2022/07/28 08:30:46;;;;;;;;;;;;;;;26.01;39.24;100690.35;1728153;81;20138;-67
2022/07/28 08:33:12;;;;;;;;;;;;;;;26.12;38.45;100709.73;1737666;81;20168;-67
2022/07/28 08:35:40;;;;;;;;;;;;;;;26.16;38.46;100702.41;1742882;81;20191;-67
2022/07/28 08:38:06;;;;;;;;;;;;;;;26.12;38.58;100698.78;1743146;81;20451;-67
2022/07/28 08:40:34;;;;;;;;;;;;;;;26.21;38.54;100696.63;1742889;81;21279;-67
2022/07/28 08:43:10;;;;;;;;;;;;;;;26.24;37.40;100699.23;1719492;81;20211;-66
2022/07/28 08:45:38;;;;;;;;;;;;;;;26.26;37.98;100699.10;1745256;81;20406;-66
2022/07/28 08:48:06;;;;;;;;;;;;;;;26.38;36.92;100694.04;1739853;81;20171;-67
2022/07/28 08:50:32;;;;;;;;;;;;;;;26.36;37.59;100693.05;1742837;82;20483;-68
2022/07/28 08:52:58;;;;;;;;;;;;;;;26.37;37.43;100697.36;1743111;82;21970;-68
2022/07/28 08:55:25;;;;;;;;;;;;;;;26.46;36.16;100694.99;1736348;81;20183;-67
2022/07/28 08:57:55;;;;;;;;;;;;;;;26.46;36.22;100699.10;1741151;81;20142;-68
2022/07/28 09:00:22;;;;;;;;;;;;;;;26.51;35.56;100696.88;1725741;81;20202;-67
2022/07/28 09:02:50;;;;;;;;;;;;;;;26.59;35.58;100705.45;1743008;81;20435;-67
2022/07/28 09:05:17;;;;;;;;;;;;;;;26.57;35.17;100703.65;1742855;82;21238;-67
2022/07/28 09:07:47;;;;;;;;;;;;;;;26.61;34.66;100695.50;1733397;81;20140;-66
2022/07/28 09:10:14;;;;;;;;;;;;;;;26.68;34.96;100693.47;1754937;81;20205;-67
2022/07/28 09:12:42;;;;;;;;;;;;;;;26.67;34.28;100695.42;1753023;81;20159;-67
2022/07/28 09:15:09;;;;;;;;;;;;;;;26.76;34.26;100695.98;1740405;81;20173;-66
2022/07/28 09:17:36;;;;;;;;;;;;;;;26.88;34.57;100698.56;1739898;81;21089;-67
2022/07/28 09:20:06;;;;;;;;;;;;;;;26.92;33.79;100693.70;1740370;81;20215;-66
2022/07/28 09:22:33;;;;;;;;;;;;;;;26.97;34.22;100698.31;1738391;81;20265;-66
2022/07/28 09:25:04;;;;;;;;;;;;;;;26.98;34.58;100697.73;1739246;81;20614;-66
2022/07/28 09:27:43;;;;;;;;;;;;;;;26.98;34.26;100701.25;1736518;81;20148;-66
2022/07/28 09:30:10;;;;;;;;;;;;;;;27.02;34.49;100699.98;1740804;81;21225;-68
2022/07/28 09:32:37;;;;;;;;;;;;;;;27.03;33.51;100718.00;1739175;81;20452;-67
2022/07/28 09:35:18;;;;;;;;;;;;;;;26.98;33.81;100701.84;1737309;81;20144;-67
2022/07/28 09:37:45;;;;;;;;;;;;;;;27.06;34.49;100709.05;1738849;81;20211;-68
2022/07/28 09:40:13;;;;;;;;;;;;;;;27.21;34.33;100710.88;1739229;81;20187;-67
2022/07/28 09:42:48;;;;;;;;;;;;;;;27.31;34.37;100711.67;1740521;81;21795;-68
2022/07/28 09:45:15;;;;;;;;;;;;;;;27.40;33.49;100707.87;1737171;81;20187;-67
2022/07/28 09:47:42;;;;;;;;;;;;;;;27.45;33.13;100715.80;1739039;81;20418;-66
2022/07/28 09:50:09;;;;;;;;;;;;;;;27.49;33.20;100707.03;1738594;81;20210;-66
2022/07/28 09:52:36;;;;;;;;;;;;;;;27.52;34.33;100717.27;1709170;81;20198;-66
2022/07/28 09:55:07;;;;;;;;;;;;;;;27.57;33.98;100716.95;1739071;81;21109;-67
2022/07/28 09:57:38;;;;;;;;;;;;;;;27.58;33.43;100711.11;1738791;81;20159;-67
2022/07/28 10:00:08;;;;;;;;;;;;;;;27.65;34.48;100711.80;1739317;81;20193;-67
2022/07/28 10:02:37;;;;;;;;;;;;;;;27.73;34.51;100715.42;1739073;81;20199;-67
2022/07/28 10:05:04;;;;;;;;;;;;;;;27.78;33.82;100713.19;1740284;81;20199;-67
2022/07/28 10:07:32;;;;;;;;;;;;;;;27.78;33.70;100709.08;1739537;81;21721;-67
2022/07/28 10:10:07;;;;;;;;;;;;;;;27.79;34.50;100709.86;1737955;81;20132;-67
2022/07/28 10:12:35;;;;;;;;;;;;;;;27.83;34.34;100709.33;1737073;81;20550;-68
2022/07/28 10:18:01;;;;;;;;;;;;;;;28.01;33.73;100704.88;1741732;81;20249;-68
2022/07/28 10:20:31;;;;;;;;;;;;;;;28.13;33.87;100709.92;1727964;81;20162;-68
2022/07/28 10:23:03;;;;;;;;;;;;;;;28.16;33.58;100703.09;1727757;81;20156;-68
2022/07/28 10:25:32;;;;;;;;;;;;;;;28.20;33.43;100703.95;1743173;82;20148;-68
2022/07/28 10:27:58;;;;;;;;;;;;;;;28.26;32.49;100696.95;1743027;82;20243;-68
2022/07/28 10:30:27;;;;;;;;;;;;;;;28.19;32.54;100702.36;1743183;81;20467;-67
2022/07/28 10:32:53;;;;;;;;;;;;;;;28.15;32.84;100704.27;1740163;81;21161;-68
2022/07/28 10:35:20;;;;;;;;;;;;;;;28.15;32.30;100707.60;1742429;81;20200;-68
2022/07/28 10:38:00;;;;;;;;;;;;;;;28.13;32.52;100705.80;1742284;80;20175;-67
2022/07/28 10:40:31;;;;;;;;;;;;;;;28.14;32.99;100699.16;1736544;81;20226;-66
2022/07/28 10:42:57;;;;;;;;;;;;;;;28.16;32.96;100697.61;1739930;81;20144;-68
2022/07/28 10:45:24;;;;;;;;;;;;;;;28.23;33.11;100696.34;1714188;82;21114;-68
2022/07/28 10:47:51;;;;;;;;;;;;;;;28.32;33.19;100695.25;1734239;81;20447;-69
2022/07/28 10:50:18;;;;;;;;;;;;;;;28.41;33.28;100699.91;1742482;81;20165;-67
2022/07/28 10:52:45;;;;;;;;;;;;;;;28.42;32.99;100694.02;1739718;81;20160;-68
2022/07/28 10:55:40;;;;;;;;;;;;;;;28.44;33.23;100691.70;1739202;81;20164;-67
2022/07/28 10:58:21;;;;;;;;;;;;;;;28.52;32.74;100703.56;1739289;81;21122;-67
2022/07/28 11:00:49;;;;;;;;;;;;;;;28.55;32.37;100701.44;1739097;81;20163;-66
2022/07/28 11:03:38;;;;;;;;;;;;;;;28.58;31.99;100700.69;1740681;81;20266;-68
2022/07/28 11:06:27;;;;;;;;;;;;;;;28.61;32.31;100704.05;1740045;81;20233;-68
2022/07/28 11:08:55;;;;;;;;;;;;;;;28.64;32.17;100700.56;1738826;81;20203;-65
2022/07/28 11:11:45;;;;;;;;;;;;;;;28.70;32.05;100696.31;1738045;81;21135;-67
2022/07/28 11:14:26;;;;;;;;;;;;;;;28.72;31.52;100698.08;1738868;81;20144;-67
2022/07/28 11:17:07;;;;;;;;;;;;;;;28.68;31.57;100698.63;1736871;81;20144;-67
2022/07/28 11:19:50;;;;;;;;;;;;;;;28.60;31.74;100697.58;1738831;81;20150;-67
2022/07/28 11:22:26;;;;;;;;;;;;;;;28.65;31.89;100696.63;1738947;81;20186;-67
2022/07/28 11:25:00;;;;;;;;;;;;;;;28.75;31.45;100689.08;1739174;81;20556;-66
2022/07/28 11:27:48;;;;;;;;;;;;;;;28.87;31.51;100685.87;1739243;81;20205;-67
2022/07/28 11:30:34;;;;;;;;;;;;;;;28.96;31.27;100678.10;1740229;81;20205;-67
2022/07/28 11:33:01;;;;;;;;;;;;;;;29.00;31.56;100689.95;1737830;81;20659;-67
2022/07/28 11:35:29;;;;;;;;;;;;;;;29.01;31.03;100681.89;1738473;81;20203;-67
2022/07/28 11:38:06;;;;;;;;;;;;;;;28.92;31.32;100684.13;1740007;81;21114;-67
2022/07/28 11:40:47;;;;;;;;;;;;;;;28.89;31.41;100689.02;1740175;81;20140;-68
2022/07/28 11:43:29;;;;;;;;;;;;;;;28.88;30.76;100684.09;1743210;81;20148;-67
2022/07/28 11:46:05;;;;;;;;;;;;;;;28.82;30.80;100680.11;1739949;81;20175;-67
2022/07/28 11:48:32;;;;;;;;;;;;;;;28.90;31.25;100683.15;1739709;81;20148;-67
2022/07/28 11:51:05;;;;;;;;;;;;;;;28.90;30.82;100675.48;1714998;82;21161;-67
2022/07/28 11:53:47;;;;;;;;;;;;;;;28.89;30.81;100671.14;1742972;81;20144;-67
2022/07/28 11:56:22;;;;;;;;;;;;;;;28.95;30.85;100671.78;1740524;81;20159;-67
2022/07/28 11:59:01;;;;;;;;;;;;;;;28.98;30.47;100675.74;1738036;81;20728;-66
2022/07/28 12:01:27;;;;;;;;;;;;;;;28.97;30.46;100667.30;1735482;81;20439;-68
2022/07/28 12:03:55;;;;;;;;;;;;;;;29.08;30.83;100675.08;1740058;81;21165;-67
2022/07/28 12:06:36;;;;;;;;;;;;;;;29.17;30.42;100667.88;1739282;81;20136;-67
2022/07/28 12:09:04;;;;;;;;;;;;;;;29.20;29.55;100665.16;1742247;81;20140;-68
2022/07/28 12:11:33;;;;;;;;;;;;;;;29.12;29.40;100668.22;1741957;81;20432;-67
2022/07/28 12:14:11;;;;;;;;;;;;;;;29.03;30.18;100668.56;1740356;81;20207;-67
2022/07/28 12:16:39;;;;;;;;;;;;;;;29.08;30.14;100668.20;1739652;81;22053;-67
2022/07/28 12:19:08;;;;;;;;;;;;;;;29.11;30.26;100664.69;1738560;81;20247;-67
2022/07/28 12:21:49;;;;;;;;;;;;;;;29.16;30.10;100665.72;1738966;81;20181;-67
2022/07/28 12:24:27;;;;;;;;;;;;;;;29.19;29.68;100669.09;1738531;81;20178;-67
2022/07/28 12:26:54;;;;;;;;;;;;;;;29.20;29.61;100667.91;1737939;81;20144;-68
2022/07/28 12:29:20;;;;;;;;;;;;;;;29.16;29.16;100667.09;1738912;81;21122;-69
2022/07/28 12:31:58;;;;;;;;;;;;;;;29.14;30.53;100675.52;1738817;81;20132;-67
2022/07/28 12:34:26;;;;;;;;;;;;;;;29.18;29.86;100665.33;1737951;81;20199;-68
2022/07/28 12:36:55;;;;;;;;;;;;;;;29.21;29.43;100669.48;1738581;81;20164;-66
2022/07/28 12:39:24;;;;;;;;;;;;;;;29.27;29.58;100666.39;1739633;81;20214;-66
2022/07/28 12:42:04;;;;;;;;;;;;;;;29.36;29.49;100665.48;1740329;81;21201;-68
2022/07/28 12:44:39;;;;;;;;;;;;;;;29.48;29.32;100659.64;1743043;81;20538;-67
2022/07/28 12:47:07;;;;;;;;;;;;;;;29.54;29.04;100657.33;1740574;81;20202;-67
2022/07/28 12:49:36;;;;;;;;;;;;;;;29.59;29.15;100659.14;1740333;81;20144;-66
2022/07/28 12:52:22;;;;;;;;;;;;;;;29.68;29.08;100657.44;1743128;81;20447;-67